createdAt,value
2018-12-30T00:01:38.428Z,3.30
2018-12-30T00:04:05.176Z,3.83
2018-12-30T00:06:32.127Z,4.07
2018-12-30T00:08:58.761Z,2.83
2018-12-30T00:11:25.520Z,3.50
2018-12-30T00:13:51.942Z,4.80
2018-12-30T00:16:18.346Z,3.60
2018-12-30T00:18:45.080Z,4.03
2018-12-30T00:21:11.626Z,4.43
2018-12-30T00:23:37.901Z,3.40
2018-12-30T00:26:04.149Z,4.07
2018-12-30T00:28:30.521Z,3.40
2018-12-30T00:30:57.213Z,3.80
2018-12-30T00:33:23.623Z,3.70
2018-12-30T00:35:50.127Z,3.97
2018-12-30T00:38:16.470Z,4.03
2018-12-30T00:40:42.733Z,3.00
2018-12-30T00:43:09.165Z,3.00
2018-12-30T00:45:35.447Z,4.20
2018-12-30T00:48:01.772Z,3.37
2018-12-30T00:50:28.118Z,3.40
2018-12-30T00:52:54.851Z,3.40
2018-12-30T00:55:21.136Z,3.63
2018-12-30T00:57:47.742Z,3.33
2018-12-30T01:00:14.091Z,3.60
2018-12-30T01:02:40.431Z,3.87
2018-12-30T01:05:06.697Z,2.70
2018-12-30T01:07:33.379Z,3.87
2018-12-30T01:09:59.646Z,3.13
2018-12-30T01:12:25.915Z,3.17
2018-12-30T01:14:52.191Z,3.80
2018-12-30T01:17:18.851Z,4.07
2018-12-30T01:19:45.103Z,3.43
2018-12-30T01:22:11.377Z,3.10
2018-12-30T01:24:37.820Z,2.87
2018-12-30T01:27:04.166Z,3.20
2018-12-30T01:29:30.530Z,3.10
2018-12-30T01:31:56.844Z,3.10
2018-12-30T01:34:23.212Z,2.83
2018-12-30T01:36:50.424Z,3.40
2018-12-30T01:39:16.711Z,3.73
2018-12-30T01:41:43.278Z,2.90
2018-12-30T01:44:09.639Z,3.20
2018-12-30T01:46:36.322Z,3.23
2018-12-30T01:49:02.959Z,2.90
2018-12-30T01:51:32.999Z,3.33
2018-12-30T01:53:57.274Z,3.17
2018-12-30T01:56:23.587Z,3.40
2018-12-30T01:58:50.235Z,2.70
2018-12-30T02:01:17.384Z,4.70
2018-12-30T02:03:43.768Z,2.63
2018-12-30T02:06:10.116Z,2.67
2018-12-30T02:08:36.710Z,3.13
2018-12-30T02:11:03.237Z,2.87
2018-12-30T02:13:29.675Z,2.60
2018-12-30T02:15:55.998Z,2.77
2018-12-30T02:18:22.352Z,3.00
2018-12-30T02:20:48.730Z,3.20
2018-12-30T02:23:14.986Z,3.40
2018-12-30T02:25:41.347Z,2.90
2018-12-30T02:28:08.088Z,2.30
2018-12-30T02:30:34.399Z,3.00
2018-12-30T02:33:00.748Z,2.77
2018-12-30T02:35:27.073Z,3.00
2018-12-30T02:37:53.404Z,2.93
2018-12-30T02:40:19.800Z,3.20
2018-12-30T02:42:46.527Z,2.83
2018-12-30T02:45:12.821Z,2.80
2018-12-30T02:47:39.076Z,3.33
2018-12-30T02:50:05.335Z,2.43
2018-12-30T02:52:31.609Z,3.60
2018-12-30T02:54:57.882Z,2.73
2018-12-30T02:57:24.502Z,3.13
2018-12-30T02:59:50.849Z,2.97
2018-12-30T03:02:17.225Z,3.70
2018-12-30T03:04:43.802Z,3.47
2018-12-30T03:07:10.167Z,2.57
2018-12-30T03:09:36.586Z,3.10
2018-12-30T03:12:03.340Z,3.03
2018-12-30T03:14:29.939Z,2.20
2018-12-30T03:16:56.315Z,2.50
2018-12-30T03:19:22.583Z,2.40
2018-12-30T03:21:48.862Z,3.40
2018-12-30T03:24:15.258Z,2.53
2018-12-30T03:26:41.528Z,2.67
2018-12-30T03:29:07.875Z,2.23
2018-12-30T03:31:34.501Z,2.50
2018-12-30T03:34:01.221Z,3.00
2018-12-30T03:36:27.544Z,2.83
2018-12-30T03:38:54.116Z,3.30
2018-12-30T03:41:20.885Z,2.30
2018-12-30T03:43:47.374Z,3.00
2018-12-30T03:46:18.194Z,3.20
2018-12-30T03:48:42.052Z,3.80
2018-12-30T03:51:08.467Z,2.27
2018-12-30T03:53:34.797Z,2.80
2018-12-30T03:56:01.610Z,2.17
2018-12-30T03:58:27.925Z,2.70
2018-12-30T04:00:54.255Z,2.07
2018-12-30T04:03:20.600Z,2.33
2018-12-30T04:05:46.874Z,2.40
2018-12-30T04:08:13.570Z,2.60
2018-12-30T04:10:40.335Z,2.80
2018-12-30T04:13:06.583Z,2.87
2018-12-30T04:15:33.077Z,3.67
2018-12-30T04:17:59.614Z,2.60
2018-12-30T04:20:26.002Z,2.47
2018-12-30T04:22:52.310Z,2.10
2018-12-30T04:25:18.868Z,2.63
2018-12-30T04:27:45.243Z,2.47
2018-12-30T04:30:11.635Z,2.60
2018-12-30T04:32:38.225Z,3.70
2018-12-30T04:35:04.483Z,3.40
2018-12-30T04:37:30.969Z,2.37
2018-12-30T04:39:57.312Z,2.73
2018-12-30T04:42:24.095Z,2.20
2018-12-30T04:44:50.642Z,3.97
2018-12-30T04:47:16.912Z,2.87
2018-12-30T04:49:43.307Z,2.00
2018-12-30T04:52:09.567Z,2.30
2018-12-30T04:54:35.842Z,2.30
2018-12-30T04:57:02.207Z,2.97
2018-12-30T04:59:28.760Z,2.30
2018-12-30T05:01:55.268Z,2.70
2018-12-30T05:04:21.569Z,2.03
2018-12-30T05:06:47.817Z,2.40
2018-12-30T05:09:14.207Z,2.30
2018-12-30T05:11:40.545Z,2.60
2018-12-30T05:14:06.891Z,2.60
2018-12-30T05:16:33.409Z,1.60
2018-12-30T05:18:59.974Z,1.70
2018-12-30T05:21:26.317Z,2.37
2018-12-30T05:23:52.845Z,2.27
2018-12-30T05:26:19.386Z,2.47
2018-12-30T05:28:45.658Z,2.50
2018-12-30T05:31:12.000Z,2.23
2018-12-30T05:33:38.634Z,2.20
2018-12-30T05:36:04.929Z,1.93
2018-12-30T05:38:31.486Z,1.80
2018-12-30T05:40:58.142Z,2.80
2018-12-30T05:43:24.651Z,2.37
2018-12-30T05:45:50.995Z,2.20
2018-12-30T05:48:17.661Z,2.90
2018-12-30T05:50:44.060Z,2.10
2018-12-30T05:53:10.345Z,1.73
2018-12-30T05:55:36.947Z,2.00
2018-12-30T05:58:03.282Z,1.80
2018-12-30T06:00:29.527Z,2.67
2018-12-30T06:02:55.811Z,2.83
2018-12-30T06:05:22.892Z,1.77
2018-12-30T06:07:49.464Z,1.83
2018-12-30T06:10:15.740Z,1.90
2018-12-30T06:12:41.987Z,2.30
2018-12-30T06:15:08.249Z,3.40
2018-12-30T06:17:34.506Z,2.00
2018-12-30T06:20:00.788Z,1.77
2018-12-30T06:22:27.087Z,2.00
2018-12-30T06:24:53.908Z,3.20
2018-12-30T06:27:20.183Z,1.80
2018-12-30T06:29:46.507Z,2.00
2018-12-30T06:32:12.781Z,1.60
2018-12-30T06:34:39.056Z,2.80
2018-12-30T06:37:05.330Z,2.57
2018-12-30T06:39:31.586Z,3.67
2018-12-30T06:41:58.385Z,2.47
2018-12-30T06:44:24.807Z,2.00
2018-12-30T06:46:51.365Z,1.90
2018-12-30T06:49:17.726Z,3.40
2018-12-30T06:51:44.128Z,2.40
2018-12-30T06:54:10.394Z,1.80
2018-12-30T06:56:36.655Z,2.30
2018-12-30T06:59:03.026Z,2.00
2018-12-30T07:01:29.296Z,3.30
2018-12-30T07:03:55.665Z,2.30
2018-12-30T07:06:22.389Z,1.50
2018-12-30T07:08:48.649Z,2.43
2018-12-30T07:11:14.907Z,2.43
2018-12-30T07:14:39.804Z,3.90
2018-12-30T07:17:06.437Z,2.87
2018-12-30T07:19:32.708Z,1.63
2018-12-30T07:21:58.975Z,3.20
2018-12-30T07:24:25.254Z,3.03
2018-12-30T07:26:51.522Z,2.00
2018-12-30T07:29:17.897Z,3.43
2018-12-30T07:31:44.143Z,3.23
2018-12-30T07:34:10.620Z,2.70
2018-12-30T07:36:36.904Z,4.33
2018-12-30T07:39:03.482Z,2.67
2018-12-30T07:41:29.736Z,2.27
2018-12-30T07:43:56.100Z,1.97
2018-12-30T07:46:22.489Z,1.70
2018-12-30T07:48:49.115Z,2.60
2018-12-30T07:51:15.386Z,1.97
2018-12-30T07:53:41.652Z,5.20
2018-12-30T07:56:07.921Z,2.40
2018-12-30T07:58:34.191Z,3.07
2018-12-30T08:01:00.700Z,1.50
2018-12-30T08:03:26.965Z,4.50
2018-12-30T08:05:53.317Z,3.53
2018-12-30T08:08:19.771Z,2.63
2018-12-30T08:10:47.591Z,2.73
2018-12-30T08:13:13.993Z,1.80
2018-12-30T08:15:40.533Z,1.97
2018-12-30T08:18:06.882Z,2.23
2018-12-30T08:20:33.453Z,3.20
2018-12-30T08:23:01.267Z,2.53
2018-12-30T08:25:27.604Z,2.47
2018-12-30T08:27:53.931Z,8.73
2018-12-30T08:30:21.296Z,6.03
2018-12-30T08:32:47.713Z,2.70
2018-12-30T08:35:13.955Z,1.90
2018-12-30T08:37:40.320Z,2.83
2018-12-30T08:40:06.687Z,2.20
2018-12-30T08:42:33.073Z,1.90
2018-12-30T08:44:59.409Z,3.40
2018-12-30T08:47:26.014Z,2.27
2018-12-30T08:49:52.568Z,2.00
2018-12-30T08:52:18.882Z,3.47
2018-12-30T08:54:45.227Z,2.13
2018-12-30T08:57:11.636Z,2.10
2018-12-30T08:59:38.448Z,3.10
2018-12-30T09:02:04.790Z,3.00
2018-12-30T09:04:31.386Z,2.10
2018-12-30T09:06:57.645Z,2.80
2018-12-30T09:09:24.054Z,2.07
2018-12-30T09:11:50.591Z,4.53
2018-12-30T09:14:17.249Z,3.23
2018-12-30T09:16:43.879Z,3.47
2018-12-30T09:19:10.274Z,2.27
2018-12-30T09:21:36.857Z,2.13
2018-12-30T09:24:03.217Z,6.67
2018-12-30T09:26:29.509Z,1.97
2018-12-30T09:28:56.194Z,3.33
2018-12-30T09:31:23.023Z,2.13
2018-12-30T09:33:49.283Z,2.83
2018-12-30T09:36:16.890Z,2.83
2018-12-30T09:38:43.575Z,2.17
2018-12-30T09:41:10.138Z,5.60
2018-12-30T09:43:36.747Z,2.60
2018-12-30T09:46:03.683Z,2.03
2018-12-30T09:48:33.902Z,2.20
2018-12-30T09:50:58.769Z,1.83
2018-12-30T09:53:25.623Z,2.00
2018-12-30T09:55:52.234Z,1.93
2018-12-30T09:58:18.829Z,5.00
2018-12-30T10:00:47.527Z,3.43
2018-12-30T10:03:13.521Z,9.47
2018-12-30T10:05:40.128Z,6.90
2018-12-30T10:08:06.503Z,9.00
2018-12-30T10:10:33.147Z,4.97
2018-12-30T10:12:59.464Z,7.90
2018-12-30T10:15:25.716Z,5.80
2018-12-30T10:17:53.159Z,7.30
2018-12-30T10:20:20.395Z,9.53
2018-12-30T10:22:46.671Z,16.63
2018-12-30T10:25:13.021Z,9.37
2018-12-30T10:27:40.012Z,8.00
2018-12-30T10:30:06.454Z,9.67
2018-12-30T10:32:33.499Z,12.77
2018-12-30T10:34:59.954Z,8.90
2018-12-30T10:37:26.210Z,10.40
2018-12-30T10:39:52.484Z,8.60
2018-12-30T10:42:18.754Z,8.23
2018-12-30T10:44:45.146Z,7.23
2018-12-30T10:47:11.521Z,8.83
2018-12-30T10:49:38.019Z,6.53
2018-12-30T10:52:05.201Z,7.53
2018-12-30T10:54:32.670Z,11.33
2018-12-30T10:56:58.968Z,9.33
2018-12-30T10:59:25.838Z,10.77
2018-12-30T11:01:52.269Z,5.73
2018-12-30T11:04:20.509Z,6.53
2018-12-30T11:06:47.038Z,8.77
2018-12-30T11:09:13.714Z,12.10
2018-12-30T11:11:40.352Z,9.40
2018-12-30T11:14:06.723Z,10.53
2018-12-30T11:16:33.165Z,8.03
2018-12-30T11:18:59.421Z,7.23
2018-12-30T11:21:26.003Z,18.37
2018-12-30T11:23:52.277Z,13.00
2018-12-30T11:26:18.870Z,15.40
2018-12-30T11:28:45.508Z,12.43
2018-12-30T11:31:11.836Z,9.20
2018-12-30T11:33:38.481Z,14.20
2018-12-30T11:36:04.759Z,10.90
2018-12-30T11:38:31.097Z,8.77
2018-12-30T11:40:57.361Z,9.60
2018-12-30T11:43:23.710Z,7.20
2018-12-30T11:45:50.065Z,6.20
2018-12-30T11:48:16.436Z,10.93
2018-12-30T11:50:42.699Z,7.10
2018-12-30T11:53:08.972Z,8.60
2018-12-30T11:55:35.503Z,7.60
2018-12-30T11:58:01.785Z,5.33
2018-12-30T12:00:28.046Z,6.80
2018-12-30T12:02:54.628Z,9.83
2018-12-30T12:05:20.887Z,8.50
2018-12-30T12:07:47.243Z,7.90
2018-12-30T12:10:13.593Z,6.70
2018-12-30T12:12:40.166Z,10.87
2018-12-30T12:15:06.790Z,8.30
2018-12-30T12:17:33.167Z,7.10
2018-12-30T12:19:59.480Z,11.33
2018-12-30T12:22:25.764Z,8.53
2018-12-30T12:24:52.030Z,8.77
2018-12-30T12:27:18.306Z,11.20
2018-12-30T12:29:44.651Z,11.53
2018-12-30T12:32:10.995Z,9.33
2018-12-30T12:34:37.267Z,8.43
2018-12-30T12:37:03.553Z,14.07
2018-12-30T12:39:30.084Z,9.23
2018-12-30T12:41:56.425Z,7.10
2018-12-30T12:44:22.682Z,11.23
2018-12-30T12:46:49.291Z,9.10
2018-12-30T12:49:15.823Z,6.23
2018-12-30T12:51:42.594Z,8.53
2018-12-30T12:54:08.922Z,11.50
2018-12-30T12:56:35.448Z,6.40
2018-12-30T12:59:01.997Z,7.90
2018-12-30T13:01:28.539Z,10.37
2018-12-30T13:03:54.837Z,7.27
2018-12-30T13:06:21.112Z,5.10
2018-12-30T13:08:47.386Z,7.37
2018-12-30T13:11:13.666Z,5.13
2018-12-30T13:13:39.934Z,5.10
2018-12-30T13:16:06.212Z,5.97
2018-12-30T13:18:32.658Z,5.97
2018-12-30T13:20:58.921Z,9.23
2018-12-30T13:23:25.242Z,6.57
2018-12-30T13:25:51.633Z,7.80
2018-12-30T13:28:18.017Z,9.10
2018-12-30T13:30:44.286Z,8.57
2018-12-30T13:33:10.551Z,10.53
2018-12-30T13:35:43.360Z,6.60
2018-12-30T13:38:04.962Z,7.80
2018-12-30T13:40:31.215Z,6.83
2018-12-30T13:42:57.493Z,6.97
2018-12-30T13:45:23.781Z,8.87
2018-12-30T13:47:50.141Z,5.90
2018-12-30T13:50:16.409Z,5.83
2018-12-30T13:52:42.785Z,5.20
2018-12-30T13:55:09.061Z,5.83
2018-12-30T13:57:35.596Z,7.67
2018-12-30T14:00:01.950Z,5.00
2018-12-30T14:02:28.298Z,3.80
2018-12-30T14:04:54.628Z,7.57
2018-12-30T14:07:20.961Z,8.80
2018-12-30T14:09:47.259Z,5.00
2018-12-30T14:12:13.554Z,5.20
2018-12-30T14:14:40.894Z,7.57
2018-12-30T14:17:07.228Z,5.17
2018-12-30T14:19:33.509Z,12.33
2018-12-30T14:21:59.771Z,8.63
2018-12-30T14:24:26.341Z,4.90
2018-12-30T14:26:59.525Z,5.27
2018-12-30T14:29:20.662Z,5.57
2018-12-30T14:31:47.185Z,5.57
2018-12-30T14:34:13.442Z,7.47
2018-12-30T14:36:40.064Z,7.10
2018-12-30T14:39:06.316Z,6.67
2018-12-30T14:41:32.643Z,4.17
2018-12-30T14:43:58.909Z,5.77
2018-12-30T14:46:33.614Z,4.87
2018-12-30T14:48:53.180Z,5.50
2018-12-30T14:51:19.824Z,8.10
2018-12-30T14:53:46.351Z,4.47
2018-12-30T14:56:12.918Z,4.70
2018-12-30T14:58:39.173Z,5.80
2018-12-30T15:01:05.419Z,5.90
2018-12-30T15:03:32.021Z,5.63
2018-12-30T15:05:58.260Z,5.77
2018-12-30T15:08:24.618Z,4.43
2018-12-30T15:10:50.955Z,5.53
2018-12-30T15:13:17.556Z,6.10
2018-12-30T15:15:44.111Z,7.03
2018-12-30T15:18:10.750Z,5.90
2018-12-30T15:20:37.075Z,4.50
2018-12-30T15:23:03.354Z,8.17
2018-12-30T15:25:29.620Z,5.93
2018-12-30T15:27:55.885Z,9.77
2018-12-30T15:30:22.173Z,4.50
2018-12-30T15:32:48.469Z,4.13
2018-12-30T15:35:14.991Z,7.23
2018-12-30T15:37:41.310Z,4.70
2018-12-30T15:40:07.570Z,5.10
2018-12-30T15:42:33.909Z,4.70
2018-12-30T15:45:00.520Z,4.77
2018-12-30T15:47:27.195Z,6.20
2018-12-30T15:49:53.727Z,7.07
2018-12-30T15:52:20.013Z,5.80
2018-12-30T15:54:46.289Z,4.27
2018-12-30T15:57:12.839Z,4.97
2018-12-30T15:59:39.229Z,4.17
2018-12-30T16:02:05.490Z,6.47
2018-12-30T16:04:32.043Z,5.60
2018-12-30T16:06:58.295Z,3.87
2018-12-30T16:09:24.564Z,3.90
2018-12-30T16:11:50.823Z,5.80
2018-12-30T16:14:17.095Z,4.57
2018-12-30T16:16:43.340Z,4.43
2018-12-30T16:19:09.586Z,6.90
2018-12-30T16:21:35.854Z,3.50
2018-12-30T16:24:02.154Z,7.77
2018-12-30T16:26:28.415Z,4.70
2018-12-30T16:28:54.665Z,7.00
2018-12-30T16:31:27.913Z,8.50
2018-12-30T16:33:49.226Z,3.93
2018-12-30T16:36:15.811Z,8.30
2018-12-30T16:38:42.129Z,8.97
2018-12-30T16:41:08.375Z,5.83
2018-12-30T16:43:34.722Z,5.57
2018-12-30T16:46:00.994Z,4.67
2018-12-30T16:48:27.881Z,4.90
2018-12-30T16:50:54.303Z,4.13
2018-12-30T16:53:20.555Z,4.07
2018-12-30T16:55:46.853Z,5.40
2018-12-30T16:58:13.189Z,6.03
2018-12-30T17:00:39.541Z,6.00
2018-12-30T17:27:20.946Z,21.53
2018-12-30T17:29:47.217Z,10.83
2018-12-30T17:32:13.837Z,11.60
2018-12-30T17:34:40.113Z,10.63
2018-12-30T17:37:06.381Z,12.67
2018-12-30T17:39:32.745Z,11.07
2018-12-30T17:42:19.542Z,13.40
2018-12-30T17:44:47.638Z,14.90
2018-12-30T17:47:15.935Z,17.77
2018-12-30T17:50:57.854Z,12.60
2018-12-30T17:53:25.345Z,15.60
2018-12-30T17:55:52.807Z,14.73
2018-12-30T17:58:20.251Z,13.63
2018-12-30T18:00:47.424Z,20.00
2018-12-30T18:03:14.591Z,16.67
2018-12-30T18:05:42.070Z,15.00
2018-12-30T18:08:09.272Z,17.10
2018-12-30T18:10:36.481Z,17.13
2018-12-30T18:13:04.405Z,25.30
2018-12-30T18:15:31.647Z,22.67
2018-12-30T18:17:59.132Z,22.60
2018-12-30T18:20:27.100Z,22.03
2018-12-30T18:22:54.267Z,25.53
2018-12-30T18:25:22.072Z,25.87
2018-12-30T18:27:49.245Z,28.50
2018-12-30T18:30:16.760Z,26.10
2018-12-30T18:32:43.929Z,37.80
2018-12-30T18:35:11.377Z,28.77
2018-12-30T18:37:38.545Z,30.70
2018-12-30T18:40:05.997Z,30.50
2018-12-30T18:42:33.548Z,24.63
2018-12-30T18:45:01.048Z,32.07
2018-12-30T18:47:28.471Z,35.87
2018-12-30T18:49:56.027Z,34.33
2018-12-30T18:52:23.206Z,30.87
2018-12-30T18:54:50.396Z,31.77
2018-12-30T18:57:17.687Z,32.47
2018-12-30T18:59:44.850Z,29.30
2018-12-30T19:02:12.133Z,33.47
2018-12-30T19:04:39.354Z,34.43
2018-12-30T19:07:06.593Z,28.50
2018-12-30T19:09:33.903Z,31.50
2018-12-30T19:12:01.066Z,32.50
2018-12-30T19:14:28.511Z,28.83
2018-12-30T19:16:55.860Z,29.27
2018-12-30T19:19:23.092Z,27.60
2018-12-30T19:21:50.242Z,28.20
2018-12-30T19:24:17.581Z,29.47
2018-12-30T19:26:45.121Z,31.57
2018-12-30T19:29:12.367Z,29.57
2018-12-30T19:31:39.516Z,33.20
2018-12-30T19:34:07.375Z,31.23
2018-12-30T19:36:34.531Z,33.67
2018-12-30T19:39:02.244Z,30.97
2018-12-30T19:41:29.762Z,30.30
2018-12-30T19:43:56.909Z,26.40
2018-12-30T19:46:24.162Z,33.53
2018-12-30T19:48:51.380Z,28.47
2018-12-30T19:51:18.918Z,30.07
2018-12-30T19:53:46.214Z,31.43
2018-12-30T19:56:13.369Z,30.37
2018-12-30T19:58:40.908Z,32.27
2018-12-30T20:01:08.072Z,31.17
2018-12-30T20:06:13.208Z,32.00
2018-12-30T20:08:40.376Z,28.10
2018-12-30T20:11:08.317Z,32.60
2018-12-30T20:13:37.744Z,33.10
2018-12-30T20:16:04.661Z,31.97
2018-12-30T20:18:31.830Z,34.27
2018-12-30T20:20:59.401Z,34.87
2018-12-30T20:23:26.552Z,33.50
2018-12-30T20:25:54.045Z,38.27
2018-12-30T20:28:21.295Z,36.90
2018-12-30T20:30:49.911Z,33.93
2018-12-30T20:33:17.547Z,40.07
2018-12-30T20:35:44.773Z,37.27
2018-12-30T20:38:11.937Z,35.63
2018-12-30T20:40:39.411Z,42.50
2018-12-30T20:43:06.589Z,41.10
2018-12-30T20:45:33.885Z,38.93
2018-12-30T20:48:01.055Z,40.87
2018-12-30T20:50:28.217Z,37.83
2018-12-30T20:52:55.390Z,40.77
2018-12-30T20:55:22.930Z,42.63
2018-12-30T20:57:50.090Z,42.57
2018-12-30T21:00:17.286Z,41.33
2018-12-30T21:02:44.414Z,43.17
2018-12-30T21:05:11.588Z,39.73
2018-12-30T21:07:38.806Z,41.77
2018-12-30T21:10:05.979Z,39.97
2018-12-30T21:12:33.163Z,33.03
2018-12-30T21:15:00.306Z,41.00
2018-12-30T21:17:27.860Z,38.77
2018-12-30T21:19:56.106Z,29.13
2018-12-30T21:22:23.335Z,34.20
2018-12-30T21:24:50.544Z,32.77
2018-12-30T21:27:17.914Z,34.97
2018-12-30T21:29:45.053Z,33.53
2018-12-30T21:32:12.350Z,31.20
2018-12-30T21:34:39.574Z,31.47
2018-12-30T21:37:07.143Z,29.00
2018-12-30T21:39:34.300Z,27.00
2018-12-30T21:42:01.470Z,29.83
2018-12-30T21:44:28.676Z,29.13
2018-12-30T21:46:56.292Z,26.60
2018-12-30T21:49:24.870Z,23.20
2018-12-30T21:51:52.014Z,19.50
2018-12-30T21:54:19.202Z,21.77
2018-12-30T21:56:46.644Z,24.83
2018-12-30T21:59:14.180Z,26.47
2018-12-30T22:01:41.350Z,21.50
2018-12-30T22:04:08.501Z,19.93
2018-12-30T22:06:35.663Z,21.53
2018-12-30T22:09:03.125Z,21.00
2018-12-30T22:11:32.011Z,20.67
2018-12-30T22:13:59.264Z,21.10
2018-12-30T22:16:26.843Z,21.90
2018-12-30T22:18:55.212Z,21.87
2018-12-30T22:21:22.342Z,22.37
2018-12-30T22:23:49.517Z,20.33
2018-12-30T22:26:16.753Z,23.50
2018-12-30T22:28:44.260Z,22.27
2018-12-30T22:31:11.729Z,19.97
2018-12-30T22:33:39.174Z,23.53
2018-12-30T22:36:06.345Z,19.90
2018-12-30T22:38:33.638Z,21.70
2018-12-30T22:41:00.810Z,21.90
2018-12-30T22:43:27.970Z,27.73
2018-12-30T22:45:55.134Z,21.17
2018-12-30T22:48:22.311Z,19.37
2018-12-30T22:50:49.786Z,22.57
2018-12-30T22:53:17.256Z,19.70
2018-12-30T22:55:44.416Z,22.07
2018-12-30T22:58:11.664Z,24.13
2018-12-30T23:00:39.703Z,20.70
2018-12-30T23:03:07.113Z,21.97
2018-12-30T23:05:34.281Z,18.97
2018-12-30T23:08:01.715Z,19.87
2018-12-30T23:10:28.894Z,21.93
2018-12-30T23:12:56.432Z,18.60
2018-12-30T23:15:23.612Z,22.03
2018-12-30T23:17:51.158Z,18.63
2018-12-30T23:20:18.483Z,19.03
2018-12-30T23:22:45.653Z,21.00
2018-12-30T23:25:13.085Z,23.17
2018-12-30T23:27:40.610Z,21.00
2018-12-30T23:30:08.058Z,20.40
2018-12-30T23:32:35.245Z,24.20
2018-12-30T23:35:02.772Z,31.13
2018-12-30T23:37:30.229Z,25.47
2018-12-30T23:42:43.593Z,33.53
2018-12-30T23:45:11.053Z,33.33
2018-12-30T23:47:38.239Z,33.57
2018-12-30T23:50:05.461Z,41.50
2018-12-30T23:52:33.034Z,42.17
2018-12-30T23:55:00.612Z,40.53
2018-12-30T23:57:27.797Z,41.03
2018-12-30T23:59:55.197Z,37.50
